Time;durP1;ratioP1;P1;durP2;ratioP2;P2;SDS_P1;SDS_P2;PMS_P1;PMS_P2;Temp;Humidity;BMP_temperature;BMP_pressure;BME280_temperature;BME280_humidity;BME280_pressure;Samples;Min_cycle;Max_cycle;Signal;HPM_P1;HPM_P2
2021/07/06 00:00:12;;;;;;;5.40;3.50;;;;;;;22.82;53.06;99884.47;5096293;28;20482;-75
2021/07/06 00:02:41;;;;;;;7.40;3.22;;;;;;;22.70;53.53;99880.47;5097096;28;20040;-74
2021/07/06 00:05:10;;;;;;;7.47;4.05;;;;;;;22.57;53.77;99881.03;5096376;28;20047;-75
2021/07/06 00:07:39;;;;;;;5.68;3.60;;;;;;;22.64;53.96;99886.63;5078032;28;20467;-75
2021/07/06 00:10:11;;;;;;;6.68;4.00;;;;;;;22.60;53.94;99891.59;5096182;28;20043;-74
2021/07/06 00:12:39;;;;;;;6.30;3.50;;;;;;;22.64;53.76;99882.03;5096605;28;20508;-76
2021/07/06 00:15:10;;;;;;;7.22;3.50;;;;;;;22.54;54.58;99886.84;5095828;28;20091;-76
2021/07/06 00:17:38;;;;;;;7.18;3.42;;;;;;;22.77;53.30;99890.44;5096245;28;20039;-76
2021/07/06 00:20:09;;;;;;;5.28;3.42;;;;;;;22.82;53.04;99885.31;5095688;28;20062;-76
2021/07/06 00:22:39;;;;;;;7.15;3.78;;;;;;;22.83;53.17;99888.88;5095869;28;20051;-78
2021/07/06 00:25:10;;;;;;;8.18;3.33;;;;;;;22.78;53.16;99889.44;5095454;28;20051;-76
2021/07/06 00:27:39;;;;;;;6.38;3.47;;;;;;;22.71;53.51;99885.75;5095864;28;20051;-77
2021/07/06 00:30:08;;;;;;;6.78;3.33;;;;;;;22.71;53.70;99885.75;5095623;28;20052;-76
2021/07/06 00:32:37;;;;;;;6.55;3.60;;;;;;;22.51;54.28;99892.66;5095950;28;20048;-76
2021/07/06 00:35:07;;;;;;;6.32;3.50;;;;;;;22.43;54.08;99881.81;5095526;28;20490;-75
2021/07/06 00:37:36;;;;;;;5.63;3.50;;;;;;;22.47;54.35;99883.16;5095956;28;20040;-75
2021/07/06 00:40:07;;;;;;;6.80;3.20;;;;;;;22.50;54.32;99890.97;5095441;28;20127;-75
2021/07/06 00:42:42;;;;;;;7.00;3.92;;;;;;;22.55;53.82;99883.94;5095998;28;20048;-76
2021/07/06 00:45:14;;;;;;;5.65;3.60;;;;;;;22.50;54.14;99883.66;5095557;28;20032;-76
2021/07/06 00:47:44;;;;;;;6.45;3.50;;;;;;;22.43;54.72;99887.25;5077524;28;20040;-75
2021/07/06 00:50:15;;;;;;;5.93;3.47;;;;;;;22.25;55.07;99893.78;5095336;28;20044;-73
2021/07/06 00:52:44;;;;;;;6.78;3.50;;;;;;;22.21;55.40;99887.00;5095655;28;20043;-74
2021/07/06 00:55:13;;;;;;;6.32;3.58;;;;;;;22.18;55.59;99887.34;5094973;28;20055;-73
2021/07/06 00:57:43;;;;;;;5.00;3.50;;;;;;;22.27;55.22;99891.72;5095166;28;20495;-75
2021/07/06 01:00:15;;;;;;;7.25;3.88;;;;;;;22.15;55.66;99890.44;5095164;28;20115;-73
2021/07/06 01:02:44;;;;;;;5.95;3.35;;;;;;;22.13;55.84;99889.75;5095545;28;20051;-74
2021/07/06 01:05:15;;;;;;;7.07;3.50;;;;;;;22.38;55.09;99889.63;5094456;28;20044;-73
2021/07/06 01:07:43;;;;;;;6.03;3.60;;;;;;;22.45;54.75;99896.06;5095148;28;20062;-72
2021/07/06 01:10:13;;;;;;;5.15;3.75;;;;;;;22.38;54.71;99884.22;5094705;28;20086;-75
2021/07/06 01:12:44;;;;;;;9.73;3.67;;;;;;;22.26;55.07;99890.03;5095343;28;20399;-75
2021/07/06 01:15:14;;;;;;;6.28;3.55;;;;;;;22.24;55.20;99892.09;5095043;28;20097;-76
2021/07/06 01:17:44;;;;;;;6.07;3.35;;;;;;;22.13;55.52;99897.06;5095143;28;20507;-75
2021/07/06 01:20:16;;;;;;;6.22;3.83;;;;;;;22.18;55.69;99894.66;5094653;28;20047;-74
2021/07/06 01:22:46;;;;;;;6.82;3.58;;;;;;;22.09;55.61;99895.69;5094728;28;20044;-74
2021/07/06 01:25:15;;;;;;;7.00;3.70;;;;;;;22.16;55.21;99889.41;5094824;28;20433;-75
2021/07/06 01:27:44;;;;;;;5.80;3.60;;;;;;;22.06;55.47;99894.16;5094715;28;20043;-73
2021/07/06 01:30:16;;;;;;;6.10;3.70;;;;;;;22.09;55.41;99892.97;5094425;28;20089;-74
2021/07/06 01:32:46;;;;;;;5.82;3.80;;;;;;;22.02;56.03;99887.41;5094752;28;20126;-74
2021/07/06 01:35:16;;;;;;;5.75;3.67;;;;;;;21.95;56.29;99886.38;5094165;28;20052;-74
2021/07/06 01:37:48;;;;;;;6.57;3.58;;;;;;;21.95;56.02;99883.69;5094788;28;20398;-74
2021/07/06 01:40:21;;;;;;;6.57;3.47;;;;;;;21.91;56.38;99879.63;5094482;28;20032;-71
2021/07/06 01:42:50;;;;;;;5.80;3.45;;;;;;;21.83;56.94;99887.78;5094445;28;20073;-72
2021/07/06 01:45:21;;;;;;;6.15;3.53;;;;;;;21.85;56.70;99883.03;5094098;28;20040;-72
2021/07/06 01:47:51;;;;;;;8.40;3.80;;;;;;;21.91;56.55;99879.63;5094130;28;20044;-74
2021/07/06 01:50:21;;;;;;;8.30;3.47;;;;;;;21.82;56.88;99876.09;5094162;28;20055;-75
2021/07/06 01:52:54;;;;;;;5.28;3.70;;;;;;;21.78;56.89;99879.31;5094543;28;20081;-73
2021/07/06 01:55:25;;;;;;;5.57;3.23;;;;;;;21.71;57.04;99881.84;5094112;28;20051;-73
2021/07/06 01:57:56;;;;;;;6.45;3.72;;;;;;;21.61;57.22;99879.31;5094132;28;20291;-73
2021/07/06 02:00:28;;;;;;;6.43;3.55;;;;;;;21.54;57.97;99881.06;5093708;28;20538;-73
2021/07/06 02:02:57;;;;;;;5.68;3.28;;;;;;;21.57;57.77;99878.00;5094337;28;20436;-72
2021/07/06 02:05:37;;;;;;;5.30;3.35;;;;;;;21.59;57.88;99881.38;5093697;28;20080;-73
2021/07/06 02:08:09;;;;;;;7.95;3.42;;;;;;;21.56;57.87;99876.31;5094075;28;20127;-71
2021/07/06 02:10:39;;;;;;;7.87;3.97;;;;;;;21.46;58.38;99878.34;5093949;28;20044;-71
2021/07/06 02:13:10;;;;;;;6.63;3.70;;;;;;;21.39;58.91;99882.75;5093837;28;20118;-73
2021/07/06 02:15:39;;;;;;;5.47;3.30;;;;;;;21.32;58.51;99887.16;5093680;28;20040;-73
2021/07/06 02:18:10;;;;;;;7.35;3.42;;;;;;;21.30;59.09;99879.19;5093475;28;20501;-72
2021/07/06 02:20:41;;;;;;;7.25;3.83;;;;;;;21.30;58.57;99876.47;5075874;28;20048;-71
2021/07/06 02:23:10;;;;;;;6.68;3.33;;;;;;;21.29;59.08;99885.63;5093329;28;20036;-74
2021/07/06 02:25:39;;;;;;;5.40;3.90;;;;;;;21.21;59.23;99887.47;5093983;28;20055;-71
2021/07/06 02:28:07;;;;;;;6.15;3.80;;;;;;;21.22;59.10;99891.88;5093673;28;20075;-73
2021/07/06 02:30:35;;;;;;;7.50;4.07;;;;;;;21.09;60.11;99876.13;5093717;28;20449;-75
2021/07/06 02:33:04;;;;;;;5.47;3.50;;;;;;;21.19;59.39;99886.81;5093441;28;20476;-74
2021/07/06 02:35:32;;;;;;;6.70;3.60;;;;;;;21.17;59.14;99884.25;5092996;28;20514;-74
2021/07/06 02:38:02;;;;;;;7.72;3.85;;;;;;;21.20;59.01;99883.06;5093676;28;20040;-75
2021/07/06 02:40:31;;;;;;;10.00;3.83;;;;;;;21.12;59.42;99882.03;5095402;28;20093;-73
2021/07/06 02:43:00;;;;;;;7.22;3.65;;;;;;;21.06;59.41;99885.44;5094811;28;20044;-74
2021/07/06 02:45:30;;;;;;;6.78;3.25;;;;;;;21.03;59.77;99885.75;5092956;28;20514;-73
2021/07/06 02:47:59;;;;;;;5.90;3.72;;;;;;;21.06;60.17;99884.59;5075221;28;20445;-70
2021/07/06 02:50:28;;;;;;;6.55;3.83;;;;;;;21.08;60.37;99888.84;5092732;28;20032;-71
2021/07/06 02:52:57;;;;;;;6.25;3.50;;;;;;;21.11;60.06;99888.47;5093423;28;20055;-71
2021/07/06 02:55:25;;;;;;;5.82;3.45;;;;;;;21.30;59.28;99894.63;5092939;28;20070;-72
2021/07/06 02:57:56;;;;;;;5.18;3.60;;;;;;;21.26;59.14;99890.53;5093095;28;20052;-71
2021/07/06 03:00:26;;;;;;;7.82;3.60;;;;;;;21.22;59.35;99891.88;5092788;28;20040;-71
2021/07/06 03:02:56;;;;;;;6.40;3.95;;;;;;;21.09;59.85;99889.69;5093272;28;20048;-71
2021/07/06 03:05:26;;;;;;;7.25;4.18;;;;;;;21.08;59.67;99888.00;5093003;28;20044;-71
2021/07/06 03:07:56;;;;;;;6.20;4.13;;;;;;;21.17;59.62;99896.97;5093189;28;20094;-71
2021/07/06 03:10:26;;;;;;;10.95;4.25;;;;;;;21.22;59.21;99894.59;5092681;28;20052;-71
2021/07/06 03:12:56;;;;;;;9.40;3.90;;;;;;;21.33;59.25;99891.59;5093239;28;20072;-70
2021/07/06 03:15:26;;;;;;;5.38;3.90;;;;;;;21.27;59.40;99893.09;5092339;28;20494;-71
2021/07/06 03:17:54;;;;;;;8.50;4.35;;;;;;;21.24;59.56;99892.56;5093120;28;20044;-71
2021/07/06 03:20:25;;;;;;;7.72;3.95;;;;;;;21.32;59.43;99892.59;5092462;28;20067;-73
2021/07/06 03:22:53;;;;;;;6.75;3.80;;;;;;;21.26;59.79;99896.84;5092827;28;20047;-73
2021/07/06 03:25:23;;;;;;;7.80;4.07;;;;;;;21.26;59.98;99898.69;5092341;28;20048;-72
2021/07/06 03:27:51;;;;;;;7.20;4.43;;;;;;;21.50;58.77;99897.84;5093842;28;20051;-72
2021/07/06 03:30:25;;;;;;;6.57;3.65;;;;;;;21.66;58.28;99898.66;5096977;28;20093;-71
2021/07/06 03:32:55;;;;;;;6.45;3.88;;;;;;;22.02;57.12;99903.69;5097123;28;20119;-71
2021/07/06 03:35:25;;;;;;;7.63;4.47;;;;;;;22.17;56.45;99903.81;5096712;28;20506;-74
2021/07/06 03:37:54;;;;;;;7.05;4.35;;;;;;;22.54;55.60;99905.88;5096861;28;20463;-74
2021/07/06 03:40:22;;;;;;;6.68;3.88;;;;;;;22.89;54.70;99909.97;5096392;28;20044;-74
2021/07/06 03:42:51;;;;;;;7.00;3.92;;;;;;;23.40;53.00;99902.94;5097007;28;20055;-73
2021/07/06 03:45:21;;;;;;;6.13;3.60;;;;;;;24.38;50.33;99893.75;5096615;28;20456;-73
2021/07/06 03:47:51;;;;;;;7.22;4.35;;;;;;;25.03;48.34;99892.88;5096899;28;20044;-73
2021/07/06 03:50:22;;;;;;;7.60;3.28;;;;;;;25.69;46.52;99898.94;5096432;28;20498;-73
2021/07/06 03:52:53;;;;;;;4.60;3.55;;;;;;;26.34;45.01;99899.53;5096820;28;20052;-73
2021/07/06 03:55:21;;;;;;;7.07;3.50;;;;;;;26.88;43.57;99900.63;5096386;28;20047;-73
2021/07/06 03:57:50;;;;;;;8.45;3.85;;;;;;;27.32;42.52;99890.00;5096422;28;20413;-73
2021/07/06 04:00:21;;;;;;;5.75;3.50;;;;;;;27.47;42.42;99902.66;5096477;28;20048;-74
2021/07/06 04:02:51;;;;;;;6.85;3.60;;;;;;;27.97;41.26;99898.41;5096392;28;20047;-73
2021/07/06 04:05:21;;;;;;;4.97;3.30;;;;;;;28.39;39.94;99899.81;5096006;28;20442;-74
2021/07/06 04:07:49;;;;;;;5.07;3.20;;;;;;;28.74;39.33;99900.28;5096282;28;20135;-73
2021/07/06 04:10:19;;;;;;;5.45;2.90;;;;;;;29.17;38.01;99896.06;5096085;28;20067;-75
2021/07/06 04:12:48;;;;;;;5.72;3.53;;;;;;;28.82;39.13;99901.94;5096585;28;20072;-73
2021/07/06 04:15:18;;;;;;;5.75;3.20;;;;;;;28.85;39.28;99906.97;5095728;28;20067;-73
2021/07/06 04:17:47;;;;;;;8.10;3.50;;;;;;;29.32;37.95;99902.06;5095957;28;20042;-72
2021/07/06 04:20:18;;;;;;;6.80;3.25;;;;;;;29.51;37.89;99901.09;5096077;28;20055;-74
2021/07/06 04:22:47;;;;;;;8.48;3.10;;;;;;;29.78;36.99;99906.38;5096205;28;20093;-73
2021/07/06 04:25:17;;;;;;;6.90;3.15;;;;;;;29.26;37.54;99908.47;5077890;28;20509;-74
2021/07/06 04:27:46;;;;;;;8.88;3.15;;;;;;;29.47;37.41;99910.84;5078106;28;20105;-73
2021/07/06 04:30:16;;;;;;;5.72;3.10;;;;;;;29.73;36.85;99914.47;5077424;28;20044;-72
2021/07/06 04:32:44;;;;;;;5.70;3.00;;;;;;;30.03;36.22;99909.94;5096067;28;20047;-75
2021/07/06 04:35:13;;;;;;;5.38;2.72;;;;;;;30.35;35.76;99918.09;5095753;28;20052;-73
2021/07/06 04:37:43;;;;;;;8.00;3.38;;;;;;;29.62;37.10;99916.84;5095359;28;20036;-72
2021/07/06 04:40:13;;;;;;;4.25;2.90;;;;;;;29.82;36.42;99926.84;5097529;28;20470;-73
2021/07/06 04:42:41;;;;;;;4.55;2.60;;;;;;;30.12;35.83;99924.28;5095160;28;20489;-72
2021/07/06 04:45:12;;;;;;;6.35;2.95;;;;;;;30.18;36.17;99926.09;5095467;28;20135;-71
2021/07/06 04:47:42;;;;;;;5.80;2.97;;;;;;;30.69;35.03;99925.75;5095053;28;20422;-72
2021/07/06 04:50:12;;;;;;;5.50;2.80;;;;;;;30.74;35.29;99928.63;5095326;28;20466;-73
2021/07/06 04:52:47;;;;;;;4.72;3.13;;;;;;;31.05;34.46;99926.72;5095217;28;20406;-73
2021/07/06 04:55:16;;;;;;;7.28;3.00;;;;;;;31.12;34.33;99930.25;5095327;28;20044;-74
2021/07/06 04:57:45;;;;;;;4.60;2.90;;;;;;;31.25;34.20;99923.72;5095663;28;20054;-73
2021/07/06 05:00:16;;;;;;;5.00;2.75;;;;;;;31.16;33.95;99927.84;5095450;28;20498;-73
2021/07/06 05:02:45;;;;;;;4.97;2.63;;;;;;;31.42;33.76;99926.63;5094992;28;20040;-73
2021/07/06 05:05:18;;;;;;;6.85;3.10;;;;;;;31.93;32.97;99934.28;5095072;28;20044;-73
2021/07/06 05:07:47;;;;;;;5.22;2.63;;;;;;;31.39;33.46;99943.66;5095217;28;20135;-74
2021/07/06 05:10:16;;;;;;;8.30;2.92;;;;;;;31.77;33.26;99944.13;5095359;28;20165;-72
2021/07/06 05:12:45;;;;;;;6.03;2.88;;;;;;;32.10;32.49;99937.16;5094875;28;20055;-70
2021/07/06 05:15:14;;;;;;;5.57;2.90;;;;;;;32.03;32.67;99948.31;5094595;28;20060;-72
2021/07/06 05:17:42;;;;;;;4.72;2.55;;;;;;;32.26;32.05;99941.97;5094757;28;20040;-72
2021/07/06 05:20:15;;;;;;;5.70;2.60;;;;;;;31.90;32.12;99943.88;5094911;28;20043;-73
2021/07/06 05:22:44;;;;;;;9.25;3.00;;;;;;;32.39;31.97;99944.47;5094711;28;20383;-73
2021/07/06 05:25:14;;;;;;;5.13;2.70;;;;;;;32.18;32.12;99950.59;5094765;28;20138;-73
2021/07/06 05:27:42;;;;;;;4.07;2.67;;;;;;;32.68;31.37;99942.63;5094744;28;20051;-73
2021/07/06 05:30:13;;;;;;;5.55;2.60;;;;;;;33.15;30.73;99955.47;5094495;28;20462;-73
2021/07/06 05:32:41;;;;;;;5.80;2.60;;;;;;;33.07;31.03;99953.91;5094477;28;20075;-74
2021/07/06 05:35:10;;;;;;;3.60;2.63;;;;;;;32.82;30.93;99959.75;5094686;28;20047;-72
2021/07/06 05:37:41;;;;;;;5.32;2.70;;;;;;;33.20;30.39;99963.81;5094549;28;20051;-73
2021/07/06 05:40:11;;;;;;;4.80;2.70;;;;;;;33.11;30.54;99963.41;5094601;28;20055;-73
2021/07/06 05:42:42;;;;;;;5.53;2.83;;;;;;;32.92;30.54;99962.75;5094305;28;20035;-73
2021/07/06 05:45:12;;;;;;;4.13;2.70;;;;;;;33.27;29.91;99970.06;5094531;28;20041;-73
2021/07/06 05:47:41;;;;;;;5.75;2.90;;;;;;;32.99;30.55;99968.97;5094242;28;20322;-73
2021/07/06 05:50:12;;;;;;;7.45;2.65;;;;;;;32.96;30.32;99974.16;5094266;28;20118;-68
2021/07/06 05:52:41;;;;;;;6.22;2.80;;;;;;;33.00;30.64;99981.69;5094103;28;20102;-68
2021/07/06 05:55:10;;;;;;;6.28;2.75;;;;;;;33.13;30.24;99975.06;5094300;28;20036;-69
2021/07/06 05:57:42;;;;;;;4.88;2.90;;;;;;;33.74;29.11;99970.66;5093943;28;20044;-70
2021/07/06 06:00:16;;;;;;;;;;;;;;;33.61;29.39;99975.69;5094628;28;20048;-70
2021/07/06 06:02:49;;;;;;;5.43;2.63;;;;;;;34.01;28.79;99968.09;5094036;28;19926;-72
2021/07/06 06:05:18;;;;;;;5.70;2.78;;;;;;;33.48;29.55;99965.75;5094269;28;20390;-73
2021/07/06 06:07:46;;;;;;;5.40;2.50;;;;;;;33.31;29.65;99976.78;5093734;28;20105;-73
2021/07/06 06:10:16;;;;;;;6.20;2.33;;;;;;;33.76;28.96;99981.47;5093800;28;20044;-74
2021/07/06 06:12:45;;;;;;;8.63;2.60;;;;;;;33.55;29.22;99983.88;5093859;28;20127;-73
2021/07/06 06:15:17;;;;;;;6.15;2.70;;;;;;;33.39;29.31;99992.13;5094198;28;20052;-69
2021/07/06 06:17:45;;;;;;;6.95;2.70;;;;;;;33.86;28.75;99979.69;5093732;28;20133;-73
2021/07/06 06:20:15;;;;;;;5.22;2.47;;;;;;;33.74;28.54;99983.66;5093672;28;20090;-74
2021/07/06 06:22:43;;;;;;;3.80;2.30;;;;;;;34.13;28.33;99979.88;5093415;28;20040;-73
2021/07/06 06:25:12;;;;;;;7.05;2.53;;;;;;;34.71;27.83;99981.28;5093823;28;20460;-72
2021/07/06 06:27:41;;;;;;;5.45;2.30;;;;;;;34.79;27.82;99984.72;5093557;28;20087;-74
2021/07/06 06:30:11;;;;;;;4.15;2.40;;;;;;;34.72;27.32;99980.19;5093721;28;20124;-74
2021/07/06 06:32:41;;;;;;;5.40;2.58;;;;;;;34.57;28.03;99974.47;5093434;28;20055;-73
2021/07/06 06:35:11;;;;;;;4.10;2.55;;;;;;;35.14;27.66;99976.03;5093372;28;20043;-74
2021/07/06 06:37:39;;;;;;;6.10;2.53;;;;;;;35.26;26.89;99977.53;5093409;28;20052;-74
2021/07/06 06:40:10;;;;;;;6.70;2.50;;;;;;;34.98;27.53;99977.78;5075594;28;20056;-74
2021/07/06 06:42:39;;;;;;;4.97;2.53;;;;;;;35.39;27.07;99983.78;5093339;28;20047;-75
2021/07/06 06:45:10;;;;;;;3.40;2.28;;;;;;;35.38;26.27;99980.19;5093180;28;20225;-74
2021/07/06 06:47:41;;;;;;;3.60;1.90;;;;;;;34.94;26.04;99985.78;5093078;28;20487;-74
2021/07/06 06:50:12;;;;;;;5.33;2.70;;;;;;;34.96;26.48;99978.03;5093621;28;20058;-74
2021/07/06 06:52:40;;;;;;;5.47;2.20;;;;;;;35.25;25.77;99980.59;5093265;28;20040;-74
2021/07/06 06:55:09;;;;;;;8.15;2.50;;;;;;;35.21;26.54;99985.78;5093251;28;20075;-74
2021/07/06 06:57:38;;;;;;;5.18;2.47;;;;;;;35.19;26.12;99982.44;5093161;28;20040;-74
2021/07/06 07:00:08;;;;;;;4.85;2.53;;;;;;;34.39;26.95;99983.06;5093161;28;20036;-74
2021/07/06 07:02:38;;;;;;;4.40;1.98;;;;;;;33.92;27.25;99982.59;5092195;28;20084;-74
2021/07/06 07:05:09;;;;;;;3.65;2.00;;;;;;;33.01;28.37;99988.91;5092946;28;20122;-74
2021/07/06 07:07:37;;;;;;;3.13;2.00;;;;;;;32.77;29.09;99992.78;5092858;28;20040;-74
2021/07/06 07:10:07;;;;;;;7.28;2.17;;;;;;;32.41;29.72;99994.75;5093020;28;20466;-74
2021/07/06 07:12:36;;;;;;;4.45;1.80;;;;;;;32.11;29.75;100000.38;5092930;28;20043;-74
2021/07/06 07:15:07;;;;;;;3.90;1.90;;;;;;;31.61;30.54;99998.00;5092985;28;20044;-74
2021/07/06 07:17:36;;;;;;;4.28;2.30;;;;;;;31.62;30.84;99996.91;5093087;28;20066;-74
2021/07/06 07:20:07;;;;;;;3.78;1.88;;;;;;;31.43;30.87;99994.47;5093286;28;20079;-74
2021/07/06 07:22:39;;;;;;;3.05;1.80;;;;;;;31.06;31.28;100000.03;5092681;28;20440;-74
2021/07/06 07:25:08;;;;;;;3.60;2.08;;;;;;;30.99;32.22;99996.53;5093323;28;20051;-74
2021/07/06 07:27:37;;;;;;;4.93;2.20;;;;;;;31.12;31.34;99998.25;5092583;28;20040;-74
2021/07/06 07:30:07;;;;;;;2.80;1.77;;;;;;;31.04;31.47;99993.91;5092883;28;20500;-74
2021/07/06 07:32:35;;;;;;;3.38;2.22;;;;;;;30.78;32.32;99993.16;5092819;28;20048;-74
2021/07/06 07:35:04;;;;;;;4.53;2.20;;;;;;;30.67;32.81;99993.94;5092790;28;20126;-74
2021/07/06 07:37:33;;;;;;;4.03;1.90;;;;;;;30.41;32.95;99988.72;5092522;28;20118;-75
2021/07/06 07:40:04;;;;;;;3.30;1.95;;;;;;;30.45;32.59;99995.44;5092636;28;20040;-74
2021/07/06 07:42:33;;;;;;;4.53;1.80;;;;;;;29.91;34.18;99996.97;5092819;28;20119;-75
2021/07/06 07:45:01;;;;;;;2.85;1.75;;;;;;;29.82;34.43;99995.56;5092772;28;20075;-73
2021/07/06 07:47:29;;;;;;;5.50;2.13;;;;;;;30.23;33.56;99997.78;5092670;28;20075;-74
2021/07/06 07:49:58;;;;;;;4.88;2.05;;;;;;;30.12;32.53;99996.63;5092612;28;20044;-74
2021/07/06 07:52:32;;;;;;;5.17;1.70;;;;;;;29.85;33.68;99984.13;5092730;28;20044;-74
2021/07/06 07:55:01;;;;;;;3.42;1.90;;;;;;;30.03;33.60;99984.19;5092985;28;20058;-74
2021/07/06 07:57:30;;;;;;;3.35;1.95;;;;;;;30.30;33.75;99987.53;5092669;28;20471;-74
2021/07/06 07:59:59;;;;;;;2.22;1.67;;;;;;;30.11;33.03;99989.44;5092761;28;20082;-74
2021/07/06 08:02:27;;;;;;;3.42;2.03;;;;;;;30.27;33.86;99981.66;5092684;28;20409;-74
2021/07/06 08:04:56;;;;;;;4.22;2.10;;;;;;;30.14;33.37;99988.13;5092275;28;20070;-74
2021/07/06 08:07:27;;;;;;;3.38;1.60;;;;;;;29.76;32.47;99986.31;5092567;28;20122;-74
2021/07/06 08:09:55;;;;;;;4.00;1.73;;;;;;;29.75;31.98;99986.53;5092126;28;20043;-74
2021/07/06 08:12:23;;;;;;;4.32;1.33;;;;;;;29.41;31.87;99991.38;5092705;28;20090;-75
2021/07/06 08:14:53;;;;;;;1.98;1.30;;;;;;;29.69;31.04;99995.66;5094636;28;20052;-75
2021/07/06 08:17:22;;;;;;;3.13;1.55;;;;;;;29.80;31.11;99989.44;5096385;28;20040;-74
2021/07/06 08:19:52;;;;;;;2.45;1.20;;;;;;;29.91;31.05;99989.56;5096219;28;20036;-75
2021/07/06 08:22:20;;;;;;;3.08;1.65;;;;;;;30.14;30.66;99988.97;5078161;28;20052;-75
2021/07/06 08:24:49;;;;;;;3.70;1.60;;;;;;;29.97;31.23;99990.56;5096056;28;20071;-74
2021/07/06 08:27:17;;;;;;;3.83;1.60;;;;;;;30.19;31.03;99986.38;5096107;28;20072;-75
2021/07/06 08:29:45;;;;;;;1.90;1.17;;;;;;;30.10;28.79;99971.22;5095904;28;20044;-75
2021/07/06 08:32:15;;;;;;;1.65;1.30;;;;;;;29.87;30.52;99979.25;5095880;28;20131;-75
2021/07/06 08:34:43;;;;;;;6.68;1.63;;;;;;;29.73;31.28;99964.78;5095896;28;20064;-75
2021/07/06 08:37:12;;;;;;;4.32;1.60;;;;;;;29.68;31.45;99986.59;5095853;28;20058;-74
2021/07/06 08:39:40;;;;;;;1.90;1.33;;;;;;;29.56;31.72;99982.88;5095510;28;20044;-75
2021/07/06 08:42:10;;;;;;;3.55;1.52;;;;;;;29.64;31.67;99982.63;5077523;28;20048;-74
2021/07/06 08:44:40;;;;;;;3.25;1.50;;;;;;;29.72;31.18;99985.06;5095405;28;20040;-74
2021/07/06 08:47:16;;;;;;;2.95;1.50;;;;;;;29.54;31.10;99974.88;5095947;28;20119;-74
2021/07/06 08:49:49;;;;;;;3.13;1.50;;;;;;;29.73;30.38;99978.53;5095715;28;20040;-75
2021/07/06 08:52:18;;;;;;;2.40;1.10;;;;;;;29.62;30.58;99979.22;5095671;28;20455;-75
2021/07/06 08:54:47;;;;;;;3.22;1.52;;;;;;;29.63;31.25;99972.69;5095142;28;20487;-75
2021/07/06 08:57:21;;;;;;;1.90;1.30;;;;;;;29.61;31.15;99983.88;5095611;28;20438;-74
2021/07/06 08:59:50;;;;;;;1.73;1.30;;;;;;;29.46;31.47;99977.84;5095289;28;20482;-75
2021/07/06 09:02:22;;;;;;;2.25;1.40;;;;;;;29.60;31.35;99979.44;5095418;28;20033;-74
2021/07/06 09:04:54;;;;;;;2.42;1.25;;;;;;;29.79;31.01;99982.28;5095352;28;20163;-75
2021/07/06 09:07:24;;;;;;;1.83;1.45;;;;;;;29.90;30.35;99970.53;5095258;28;20048;-75
2021/07/06 09:09:52;;;;;;;2.92;1.58;;;;;;;30.00;30.38;99972.78;5095110;28;20132;-75
2021/07/06 09:12:34;;;;;;;4.15;1.50;;;;;;;30.24;29.93;99971.13;5095107;28;20051;-74
2021/07/06 09:15:21;;;;;;;4.03;1.48;;;;;;;30.01;30.12;99975.28;5094788;28;20059;-75
2021/07/06 09:18:05;;;;;;;3.25;1.27;;;;;;;29.83;30.74;99975.28;5094797;28;20538;-75
2021/07/06 09:20:36;;;;;;;3.65;1.90;;;;;;;29.88;30.95;99969.94;5095315;28;20074;-73
2021/07/06 09:23:25;;;;;;;4.00;1.48;;;;;;;29.96;30.80;99969.66;5095182;28;20040;-74
2021/07/06 09:26:14;;;;;;;3.10;1.70;;;;;;;29.83;31.14;99980.78;5094173;28;20044;-75
2021/07/06 09:28:44;;;;;;;2.95;1.48;;;;;;;29.94;31.03;99960.78;5094614;28;20043;-75
2021/07/06 09:31:31;;;;;;;2.38;1.55;;;;;;;30.22;30.87;99965.84;5094638;28;20510;-75
2021/07/06 09:34:08;;;;;;;3.15;1.70;;;;;;;30.36;30.20;99969.28;5094850;28;20040;-75
2021/07/06 09:36:41;;;;;;;5.75;1.67;;;;;;;30.37;29.63;99969.06;5094601;28;20048;-75
2021/07/06 09:39:11;;;;;;;;;;;;;;;30.64;28.47;99972.38;5095266;28;20048;-74
2021/07/06 09:41:41;;;;;;;2.33;1.40;;;;;;;30.74;28.75;99966.34;5094812;28;20287;-74
2021/07/06 09:44:21;;;;;;;3.42;1.33;;;;;;;30.89;28.81;99969.53;5094710;28;20047;-74
2021/07/06 09:46:52;;;;;;;4.53;1.40;;;;;;;31.00;27.65;99973.44;5094577;28;20441;-74
2021/07/06 09:49:23;;;;;;;2.67;1.30;;;;;;;30.56;27.78;99975.41;5094361;28;20054;-74
2021/07/06 09:52:08;;;;;;;2.28;1.30;;;;;;;30.50;28.66;99970.84;5094293;28;20040;-74
2021/07/06 09:54:38;;;;;;;2.17;1.10;;;;;;;30.45;28.28;99974.25;5094587;28;20115;-74
2021/07/06 09:57:20;;;;;;;3.97;1.33;;;;;;;30.30;28.85;99972.94;5094037;28;20048;-74
2021/07/06 10:00:04;;;;;;;2.60;1.55;;;;;;;30.28;29.31;99966.81;5094171;28;20040;-75
2021/07/06 10:02:33;;;;;;;3.03;1.30;;;;;;;30.39;28.88;99971.56;5094382;28;20048;-74
2021/07/06 10:05:07;;;;;;;1.63;1.30;;;;;;;30.25;29.17;99970.03;5094022;28;20456;-74
2021/07/06 10:07:39;;;;;;;4.95;1.40;;;;;;;30.25;29.18;99967.28;5094107;28;20044;-75
2021/07/06 10:10:10;;;;;;;3.63;1.50;;;;;;;30.35;28.83;99967.59;5094124;28;20079;-75
2021/07/06 10:12:39;;;;;;;2.72;1.23;;;;;;;30.24;28.13;99962.88;5093874;28;20050;-74
2021/07/06 10:15:09;;;;;;;2.55;1.05;;;;;;;30.24;28.83;99962.88;5093528;28;20055;-75
2021/07/06 10:17:48;;;;;;;2.63;1.30;;;;;;;30.25;28.63;99957.13;5093698;28;20058;-74
2021/07/06 10:20:20;;;;;;;3.08;1.23;;;;;;;30.32;28.56;99973.56;5093687;28;20536;-75
2021/07/06 10:22:52;;;;;;;1.37;1.00;;;;;;;30.73;27.25;99959.16;5094008;28;20047;-74
2021/07/06 10:25:25;;;;;;;2.72;1.50;;;;;;;30.68;27.66;99962.59;5093835;28;20290;-74
2021/07/06 10:27:57;;;;;;;3.08;1.00;;;;;;;30.49;28.37;99956.22;5075551;28;20052;-74
2021/07/06 10:30:31;;;;;;;3.88;1.30;;;;;;;30.60;28.28;99954.63;5093875;28;20048;-74
2021/07/06 10:33:01;;;;;;;1.50;1.05;;;;;;;30.58;28.35;99951.25;5093399;28;20043;-74
2021/07/06 10:35:49;;;;;;;3.13;1.40;;;;;;;30.82;28.22;99956.94;5093671;28;20105;-74
2021/07/06 10:38:43;;;;;;;2.00;1.23;;;;;;;31.10;27.59;99954.44;5092732;28;20046;-74
2021/07/06 10:41:14;;;;;;;2.05;1.10;;;;;;;31.22;27.43;99958.09;5093503;28;20384;-74
2021/07/06 10:43:57;;;;;;;3.60;1.48;;;;;;;30.98;27.14;99964.53;5093684;28;20044;-74
2021/07/06 10:46:30;;;;;;;4.53;1.17;;;;;;;30.96;27.20;99958.41;5093307;28;20070;-74
2021/07/06 10:49:01;;;;;;;2.97;1.10;;;;;;;31.12;27.01;99955.03;5093298;28;20098;-74
2021/07/06 10:51:53;;;;;;;1.80;1.10;;;;;;;31.18;26.59;99950.50;5093298;28;20048;-75
2021/07/06 10:54:30;;;;;;;3.05;1.38;;;;;;;31.06;26.21;99955.94;5093410;28;20039;-74
2021/07/06 10:57:12;;;;;;;1.25;1.00;;;;;;;30.93;26.47;99953.38;5093105;28;20119;-75
2021/07/06 10:59:41;;;;;;;1.80;1.02;;;;;;;31.12;26.70;99946.75;5093262;28;20513;-75
2021/07/06 11:02:13;;;;;;;1.50;1.02;;;;;;;31.21;26.56;99941.81;5092963;28;20047;-74
2021/07/06 11:05:07;;;;;;;1.75;1.00;;;;;;;31.34;26.35;99936.91;5093269;28;20044;-74
2021/07/06 11:07:53;;;;;;;3.15;1.13;;;;;;;31.25;25.47;99932.81;5093459;28;20063;-74
2021/07/06 11:10:39;;;;;;;1.60;0.82;;;;;;;30.85;24.97;99946.28;5092980;28;20515;-74
2021/07/06 11:13:19;;;;;;;1.60;0.90;;;;;;;30.69;25.79;99931.25;5092627;28;20398;-75
2021/07/06 11:15:48;;;;;;;3.88;0.73;;;;;;;31.11;25.68;99925.81;5092948;28;20040;-75
2021/07/06 11:18:17;;;;;;;1.70;1.10;;;;;;;31.11;25.81;99931.31;5092796;28;20044;-74
2021/07/06 11:20:50;;;;;;;1.92;1.10;;;;;;;31.26;25.62;99926.22;5092785;28;20110;-75
2021/07/06 11:23:22;;;;;;;1.55;0.90;;;;;;;31.28;25.56;99926.03;5074976;28;20052;-75
2021/07/06 11:26:01;;;;;;;2.90;1.10;;;;;;;31.50;25.26;99932.66;5092930;28;20036;-75
2021/07/06 11:28:29;;;;;;;3.30;0.90;;;;;;;31.68;25.56;99937.25;5093216;28;20044;-73
2021/07/06 11:30:59;;;;;;;1.73;0.90;;;;;;;31.76;25.19;99936.94;5092526;28;20040;-74
2021/07/06 11:33:40;;;;;;;2.60;1.10;;;;;;;31.59;25.29;99933.16;5092815;28;20050;-75
2021/07/06 11:36:19;;;;;;;2.03;1.20;;;;;;;31.46;26.09;99927.84;5092586;28;20101;-75
2021/07/06 11:38:49;;;;;;;3.00;1.00;;;;;;;31.60;25.16;99927.41;5092900;28;20040;-74
2021/07/06 11:41:22;;;;;;;3.33;1.10;;;;;;;31.85;25.03;99921.72;5092605;28;20502;-74
2021/07/06 11:43:51;;;;;;;1.33;1.10;;;;;;;31.94;24.88;99924.09;5092599;28;20071;-75
2021/07/06 11:46:22;;;;;;;1.63;0.98;;;;;;;31.96;24.95;99913.69;5093008;28;20044;-74
2021/07/06 11:48:52;;;;;;;2.10;1.20;;;;;;;31.97;24.97;99916.19;5093674;28;20032;-75
2021/07/06 11:51:22;;;;;;;2.60;0.90;;;;;;;32.03;24.82;99914.38;5096966;28;20032;-74